Back to top

Casper, WY weather

Natrona County International Airport, Casper, WY: 1/20/2020 03:53
Visibility10 statute milesclear sky
View 7-Day Forecast
Area Summary
Sky/CloudsSky Clear
Weather [last 24 hours]None
Pressure30.33 in.Hg (1027 hPa)
Dew Point14 °F (-10 °C)
Relative Humidity62.5 %
Temperature25 °F (-3.9 °C)blue thermometer
Wind Chill10.2 °F (-12.1 °C)
Reading TimeMinimum to Maximum Temperature
6-hr ending 1/19@22:5326.1 °F to 30 °F (-3.3 °C to -1.1 °C)
6-hr ending 1/19@16:5328.9 °F to 35.1 °F (-1.7 °C to 1.7 °C)
6-hr ending 1/19@10:5321.9 °F to 28.9 °F (-5.6 °C to -1.7 °C)
6-hr ending 1/19@04:5321.9 °F to 26.1 °F (-5.6 °C to -3.3 °C)
24-hr ending 1/19@23:5321.9 °F to 35.1 °F (-5.6 °C to 1.7 °C)
Wind21.9 MPH (19 KT) green arrow pointing 202.5 degrees
Wind FromSouth/Southwest (210 Degrees)
Last Hour's Peak Wind31.1 MPH (27 KT) on 1/20@03:44
Last Hour's Peak Wind FromSouthwest (220 Degrees)
Rolling 24-hr Peak Wind33.4 MPH (29 KT) on 1/20@01:02
Rolling 24-hr Peak Wind FromSouth/Southwest (210 Degrees)
Twilight Begins06:58Sunshine Yesterday
Sunrise07:29N/A
Sunset17:05
Twilight Ends17:36
METARKCPR 201053Z AUTO 21019KT 10SM CLR M04/M10 A3033 RMK AO2 PK WND 22027/1044 SLP300 T10391100
Tags: